createdAt,value
2018-11-03T00:00:56.441Z,9.40
2018-11-03T00:03:31.521Z,10.73
2018-11-03T00:06:06.478Z,10.77
2018-11-03T00:08:41.408Z,9.50
2018-11-03T00:11:17.930Z,9.20
2018-11-03T00:13:53.082Z,10.07
2018-11-03T00:16:28.418Z,9.57
2018-11-03T00:19:03.355Z,10.63
2018-11-03T00:21:38.331Z,10.50
2018-11-03T00:24:13.446Z,10.30
2018-11-03T00:26:48.186Z,10.20
2018-11-03T00:29:23.940Z,10.40
2018-11-03T00:31:59.057Z,10.63
2018-11-03T00:34:34.396Z,10.13
2018-11-03T00:37:09.114Z,10.60
2018-11-03T00:39:44.065Z,10.43
2018-11-03T00:42:18.703Z,10.87
2018-11-03T00:44:53.426Z,10.63
2018-11-03T00:47:28.389Z,10.17
2018-11-03T00:50:03.286Z,10.70
2018-11-03T00:52:37.970Z,10.50
2018-11-03T00:55:13.103Z,10.13
2018-11-03T00:57:47.880Z,10.00
2018-11-03T01:00:22.910Z,10.20
2018-11-03T01:02:57.750Z,10.70
2018-11-03T01:05:32.977Z,10.73
2018-11-03T01:08:08.541Z,10.50
2018-11-03T01:10:43.708Z,10.37
2018-11-03T01:13:18.616Z,9.57
2018-11-03T01:15:54.345Z,9.90
2018-11-03T01:18:29.275Z,10.17
2018-11-03T01:21:04.365Z,9.87
2018-11-03T01:23:39.484Z,10.60
2018-11-03T01:26:14.370Z,9.90
2018-11-03T01:28:49.132Z,10.27
2018-11-03T01:31:24.161Z,10.10
2018-11-03T01:34:00.149Z,9.70
2018-11-03T01:36:35.160Z,9.20
2018-11-03T01:39:11.614Z,10.10
2018-11-03T01:41:47.022Z,11.20
2018-11-03T01:44:22.030Z,10.80
2018-11-03T01:46:58.366Z,10.40
2018-11-03T01:49:33.210Z,10.33
2018-11-03T01:52:07.882Z,9.53
2018-11-03T01:54:43.548Z,9.43
2018-11-03T01:57:18.768Z,9.30
2018-11-03T01:59:53.438Z,10.33
2018-11-03T02:02:29.127Z,10.63
2018-11-03T02:05:04.442Z,11.00
2018-11-03T02:07:39.746Z,10.53
2018-11-03T02:10:14.449Z,10.50
2018-11-03T02:12:49.191Z,10.07
2018-11-03T02:15:23.979Z,10.90
2018-11-03T02:17:58.743Z,10.63
2018-11-03T02:20:33.645Z,9.23
2018-11-03T02:23:08.615Z,10.10
2018-11-03T02:25:44.723Z,10.77
2018-11-03T02:28:19.810Z,10.20
2018-11-03T02:30:55.300Z,10.07
2018-11-03T02:33:30.752Z,9.93
2018-11-03T02:36:05.949Z,13.00
2018-11-03T02:38:40.822Z,13.27
2018-11-03T02:41:15.856Z,13.13
2018-11-03T02:43:50.482Z,12.80
2018-11-03T02:46:25.547Z,13.20
2018-11-03T02:49:00.678Z,12.37
2018-11-03T02:51:36.074Z,13.53
2018-11-03T02:54:11.276Z,12.93
2018-11-03T02:56:46.298Z,13.23
2018-11-03T02:59:21.069Z,12.87
2018-11-03T03:01:56.051Z,14.50
2018-11-03T03:04:30.846Z,14.53
2018-11-03T03:07:06.050Z,15.13
2018-11-03T03:09:41.926Z,13.90
2018-11-03T03:12:16.834Z,15.77
2018-11-03T03:14:52.485Z,15.30
2018-11-03T03:17:27.622Z,15.37
2018-11-03T03:20:02.370Z,17.07
2018-11-03T03:22:37.216Z,18.30
2018-11-03T03:25:12.386Z,19.50
2018-11-03T03:27:47.510Z,18.87
2018-11-03T03:30:22.706Z,19.87
2018-11-03T03:32:58.469Z,18.50
2018-11-03T03:35:33.282Z,18.17
2018-11-03T03:38:08.228Z,18.40
2018-11-03T03:40:42.990Z,18.60
2018-11-03T03:43:17.590Z,17.63
2018-11-03T03:45:52.230Z,18.13
2018-11-03T03:48:27.058Z,17.47
2018-11-03T03:51:01.967Z,16.63
2018-11-03T03:53:36.901Z,16.53
2018-11-03T03:56:11.657Z,16.37
2018-11-03T03:58:46.571Z,15.73
2018-11-03T04:01:21.761Z,15.90
2018-11-03T04:03:56.649Z,15.53
2018-11-03T04:06:31.638Z,14.97
2018-11-03T04:09:08.103Z,15.97
2018-11-03T04:11:43.187Z,16.80
2018-11-03T04:14:17.974Z,16.17
2018-11-03T04:16:52.863Z,16.57
2018-11-03T04:19:27.754Z,16.07
2018-11-03T04:22:02.757Z,15.00
2018-11-03T04:24:37.753Z,16.27
2018-11-03T04:27:12.718Z,16.67
2018-11-03T04:29:47.665Z,16.60
2018-11-03T04:32:22.669Z,17.13
2018-11-03T04:34:57.594Z,16.43
2018-11-03T04:37:32.642Z,17.73
2018-11-03T04:40:09.693Z,19.23
2018-11-03T04:42:45.110Z,19.87
2018-11-03T04:45:20.645Z,19.77
2018-11-03T04:47:55.545Z,18.57
2018-11-03T04:50:30.682Z,19.57
2018-11-03T04:53:06.368Z,21.00
2018-11-03T04:55:41.504Z,21.17
2018-11-03T04:58:16.969Z,23.00
2018-11-03T05:00:51.805Z,24.43
2018-11-03T05:03:26.993Z,24.20
2018-11-03T05:06:02.237Z,24.53
2018-11-03T05:08:37.474Z,25.07
2018-11-03T05:11:12.200Z,26.83
2018-11-03T05:13:47.125Z,27.63
2018-11-03T05:16:21.905Z,26.10
2018-11-03T05:18:57.005Z,26.50
2018-11-03T05:21:31.887Z,28.37
2018-11-03T05:24:06.975Z,26.47
2018-11-03T05:26:41.624Z,27.17
2018-11-03T05:29:16.611Z,28.10
2018-11-03T05:31:52.079Z,27.07
2018-11-03T05:34:26.854Z,27.83
2018-11-03T05:37:02.463Z,27.87
2018-11-03T05:39:37.143Z,26.00
2018-11-03T05:42:12.121Z,25.17
2018-11-03T05:44:47.470Z,26.00
2018-11-03T05:47:22.506Z,25.67
2018-11-03T05:49:57.446Z,25.77
2018-11-03T05:52:31.999Z,25.20
2018-11-03T05:55:08.154Z,26.07
2018-11-03T05:57:43.066Z,24.83
2018-11-03T06:00:18.015Z,27.23
2018-11-03T06:02:52.674Z,26.40
2018-11-03T06:05:27.774Z,26.47
2018-11-03T06:08:03.210Z,26.50
2018-11-03T06:10:38.074Z,26.83
2018-11-03T06:13:12.712Z,27.17
2018-11-03T06:15:47.726Z,26.60
2018-11-03T06:18:22.346Z,27.30
2018-11-03T06:20:57.429Z,26.83
2018-11-03T06:23:32.205Z,28.80
2018-11-03T06:26:07.659Z,34.95
2018-11-03T06:28:42.602Z,29.13
2018-11-03T06:31:17.646Z,28.70
2018-11-03T06:33:52.401Z,29.17
2018-11-03T06:36:27.466Z,28.23
2018-11-03T06:39:02.761Z,28.57
2018-11-03T06:41:37.649Z,29.57
2018-11-03T06:44:12.605Z,29.80
2018-11-03T06:46:47.704Z,28.67
2018-11-03T06:49:23.564Z,28.10
2018-11-03T06:51:58.552Z,28.07
2018-11-03T06:54:33.714Z,29.63
2018-11-03T06:57:08.393Z,28.50
2018-11-03T06:59:43.470Z,28.80
2018-11-03T07:02:18.306Z,29.13
2018-11-03T07:04:53.107Z,29.03
2018-11-03T07:07:28.074Z,29.70
2018-11-03T07:10:03.445Z,30.13
2018-11-03T07:12:38.723Z,29.30
2018-11-03T07:15:14.420Z,28.80
2018-11-03T07:17:50.590Z,29.73
2018-11-03T07:20:25.927Z,28.67
2018-11-03T07:23:01.889Z,30.77
2018-11-03T07:25:37.042Z,31.13
2018-11-03T07:28:11.665Z,30.10
2018-11-03T07:30:46.567Z,29.03
2018-11-03T07:33:21.969Z,32.33
2018-11-03T07:35:57.349Z,30.60
2018-11-03T07:38:32.212Z,31.67
2018-11-03T07:41:07.894Z,30.70
2018-11-03T07:43:43.898Z,30.07
2018-11-03T07:46:18.740Z,29.80
2018-11-03T07:48:53.578Z,28.40
2018-11-03T07:51:28.447Z,29.53
2018-11-03T07:54:03.575Z,29.73
2018-11-03T07:56:38.879Z,29.47
2018-11-03T07:59:13.836Z,29.97
2018-11-03T08:01:48.786Z,31.40
2018-11-03T08:04:23.887Z,31.00
2018-11-03T08:06:58.806Z,30.43
2018-11-03T08:09:33.667Z,31.60
2018-11-03T08:12:08.506Z,30.53
2018-11-03T08:14:43.330Z,29.73
2018-11-03T08:17:18.271Z,30.93
2018-11-03T08:19:53.056Z,29.27
2018-11-03T08:22:28.664Z,29.23
2018-11-03T08:25:04.408Z,29.77
2018-11-03T08:27:39.100Z,30.17
2018-11-03T08:30:15.509Z,30.77
2018-11-03T08:32:50.629Z,29.47
2018-11-03T08:35:25.607Z,29.93
2018-11-03T08:38:00.658Z,28.70
2018-11-03T08:40:35.366Z,30.27
2018-11-03T08:43:10.341Z,30.17
2018-11-03T08:45:45.306Z,30.17
2018-11-03T08:48:20.173Z,31.80
2018-11-03T08:50:55.150Z,31.03
2018-11-03T08:53:29.973Z,29.83
2018-11-03T08:56:05.411Z,30.37
2018-11-03T08:58:40.455Z,30.17
2018-11-03T09:01:15.458Z,32.10
2018-11-03T09:03:50.619Z,30.73
2018-11-03T09:06:25.355Z,30.43
2018-11-03T09:09:00.297Z,31.10
2018-11-03T09:11:42.002Z,29.30
2018-11-03T09:14:17.748Z,31.47
2018-11-03T09:16:52.878Z,29.23
2018-11-03T09:19:27.618Z,29.40
2018-11-03T09:22:02.558Z,29.83
2018-11-03T09:24:37.322Z,28.23
2018-11-03T09:27:12.421Z,29.27
2018-11-03T09:29:47.510Z,29.13
2018-11-03T09:32:22.172Z,31.07
2018-11-03T09:34:57.138Z,29.70
2018-11-03T09:37:32.890Z,29.37
2018-11-03T09:40:10.016Z,29.03
2018-11-03T09:42:46.429Z,28.90
2018-11-03T09:45:21.875Z,28.70
2018-11-03T09:47:56.754Z,29.70
2018-11-03T09:50:32.288Z,29.77
2018-11-03T09:53:07.218Z,29.20
2018-11-03T09:55:42.110Z,28.13
2018-11-03T09:58:17.204Z,28.77
2018-11-03T10:00:53.013Z,29.27
2018-11-03T10:03:27.906Z,27.67
2018-11-03T10:06:03.445Z,29.47
2018-11-03T10:08:39.344Z,27.33
2018-11-03T10:11:14.767Z,27.33
2018-11-03T10:13:49.496Z,27.93
2018-11-03T10:16:24.629Z,28.03
2018-11-03T10:18:59.649Z,27.73
2018-11-03T10:21:34.795Z,27.67
2018-11-03T10:24:09.844Z,26.03
2018-11-03T10:26:44.525Z,28.87
2018-11-03T10:29:19.320Z,26.77
2018-11-03T10:31:54.134Z,27.37
2018-11-03T10:34:29.116Z,28.07
2018-11-03T10:37:04.305Z,27.37
2018-11-03T10:39:39.090Z,25.53
2018-11-03T10:42:15.227Z,25.50
2018-11-03T10:44:50.451Z,25.87
2018-11-03T10:47:25.241Z,25.67
2018-11-03T10:50:00.589Z,25.03
2018-11-03T10:52:35.184Z,24.33
2018-11-03T10:55:12.125Z,24.03
2018-11-03T10:57:47.474Z,23.60
2018-11-03T11:00:27.803Z,24.57
2018-11-03T11:03:08.158Z,24.93
2018-11-03T11:05:48.134Z,22.40
2018-11-03T11:08:28.718Z,21.83
2018-11-03T11:11:08.810Z,21.83
2018-11-03T11:13:44.358Z,22.07
2018-11-03T11:16:20.535Z,21.87
2018-11-03T11:18:55.563Z,21.97
2018-11-03T11:21:30.385Z,22.50
2018-11-03T11:24:05.855Z,20.53
2018-11-03T11:26:41.029Z,22.97
2018-11-03T11:29:16.105Z,22.17
2018-11-03T11:31:51.412Z,20.53
2018-11-03T11:34:26.907Z,20.50
2018-11-03T11:37:01.763Z,20.17
2018-11-03T11:39:37.427Z,21.73
2018-11-03T11:42:12.664Z,20.40
2018-11-03T11:44:47.468Z,20.20
2018-11-03T11:47:22.523Z,20.47
2018-11-03T11:49:57.272Z,21.13
2018-11-03T11:52:32.271Z,20.33
2018-11-03T11:55:07.777Z,20.83
2018-11-03T11:57:42.857Z,20.00
2018-11-03T12:00:18.629Z,18.30
2018-11-03T12:02:53.849Z,18.75
2018-11-03T12:05:29.264Z,18.62
2018-11-03T12:08:04.652Z,17.17
2018-11-03T12:10:40.293Z,16.73
2018-11-03T12:13:15.749Z,16.65
2018-11-03T12:15:51.246Z,16.67
2018-11-03T12:18:26.720Z,18.02
2018-11-03T12:21:02.224Z,19.40
2018-11-03T12:23:37.525Z,17.48
2018-11-03T12:26:13.006Z,17.92
2018-11-03T12:28:48.635Z,17.23
2018-11-03T12:31:24.130Z,17.25
2018-11-03T12:33:59.544Z,18.25
2018-11-03T12:36:35.790Z,18.05
2018-11-03T12:39:11.550Z,19.90
2018-11-03T12:41:46.914Z,16.70
2018-11-03T12:44:23.057Z,17.30
2018-11-03T12:46:58.356Z,17.17
2018-11-03T12:49:34.240Z,17.23
2018-11-03T12:52:09.907Z,17.23
2018-11-03T12:54:45.660Z,18.77
2018-11-03T12:57:21.645Z,18.87
2018-11-03T12:59:57.233Z,16.65
2018-11-03T13:02:32.587Z,16.65
2018-11-03T13:05:08.301Z,18.60
2018-11-03T13:07:45.043Z,19.75
2018-11-03T13:10:20.010Z,19.15
2018-11-03T13:12:54.811Z,19.05
2018-11-03T13:15:30.319Z,17.37
2018-11-03T13:18:06.341Z,17.07
2018-11-03T13:20:41.898Z,18.05
2018-11-03T13:23:17.322Z,18.00
2018-11-03T13:25:53.298Z,17.62
2018-11-03T13:28:28.534Z,19.35
2018-11-03T13:31:04.009Z,19.65
2018-11-03T13:33:39.221Z,23.20
2018-11-03T13:36:14.819Z,22.25
2018-11-03T13:38:50.731Z,20.75
2018-11-03T13:41:26.627Z,20.95
2018-11-03T13:44:01.359Z,22.20
2018-11-03T13:46:36.124Z,20.43
2018-11-03T13:49:10.941Z,21.13
2018-11-03T13:51:46.580Z,21.20
2018-11-03T13:54:21.178Z,21.30
2018-11-03T13:56:56.195Z,20.67
2018-11-03T13:59:31.129Z,20.93
2018-11-03T14:02:07.100Z,21.17
2018-11-03T14:04:42.254Z,21.10
2018-11-03T14:07:17.146Z,20.67
2018-11-03T14:09:51.921Z,20.30
2018-11-03T14:12:27.404Z,21.57
2018-11-03T14:15:03.023Z,20.17
2018-11-03T14:17:38.342Z,20.37
2018-11-03T14:20:15.018Z,20.73
2018-11-03T14:22:49.738Z,20.23
2018-11-03T14:25:24.494Z,20.33
2018-11-03T14:27:59.860Z,21.43
2018-11-03T14:30:34.967Z,20.03
2018-11-03T14:33:09.907Z,19.73
2018-11-03T14:35:44.785Z,19.97
2018-11-03T14:38:19.701Z,20.80
2018-11-03T14:40:54.439Z,20.60
2018-11-03T14:43:29.549Z,20.33
2018-11-03T14:46:04.708Z,20.73
2018-11-03T14:48:40.179Z,20.10
2018-11-03T14:51:15.153Z,19.57
2018-11-03T14:53:50.701Z,20.83
2018-11-03T14:56:26.211Z,20.03
2018-11-03T14:59:01.216Z,21.93
2018-11-03T15:01:36.250Z,21.50
2018-11-03T15:04:11.750Z,20.07
2018-11-03T15:06:46.676Z,20.13
2018-11-03T15:09:22.306Z,19.80
2018-11-03T15:11:57.076Z,20.37
2018-11-03T15:14:32.882Z,18.60
2018-11-03T15:17:08.259Z,18.97
2018-11-03T15:19:43.260Z,18.70
2018-11-03T15:22:19.140Z,19.63
2018-11-03T15:24:54.002Z,19.67
2018-11-03T15:27:29.038Z,19.33
2018-11-03T15:30:04.352Z,20.60
2018-11-03T15:32:39.060Z,19.43
2018-11-03T15:35:14.076Z,18.47
2018-11-03T15:37:48.887Z,19.67
2018-11-03T15:40:23.768Z,20.10
2018-11-03T15:42:59.126Z,20.17
2018-11-03T15:45:33.926Z,19.67
2018-11-03T15:48:08.817Z,20.63
2018-11-03T15:50:48.529Z,20.77
2018-11-03T15:53:23.356Z,20.70
2018-11-03T15:55:58.266Z,20.37
2018-11-03T15:58:33.348Z,19.77
2018-11-03T16:01:08.667Z,30.67
2018-11-03T16:03:43.398Z,22.73
2018-11-03T16:06:18.234Z,21.40
2018-11-03T16:08:53.266Z,19.17
2018-11-03T16:11:28.158Z,19.03
2018-11-03T16:14:03.850Z,19.03
2018-11-03T16:16:39.439Z,18.83
2018-11-03T16:19:14.229Z,20.73
2018-11-03T16:21:49.258Z,20.00
2018-11-03T16:24:24.083Z,20.80
2018-11-03T16:26:58.861Z,19.60
2018-11-03T16:29:33.776Z,17.13
2018-11-03T16:32:08.705Z,17.93
2018-11-03T16:34:43.690Z,16.37
2018-11-03T16:37:18.583Z,17.47
2018-11-03T16:39:53.318Z,19.97
2018-11-03T16:42:28.088Z,18.23
2018-11-03T16:45:03.355Z,17.20
2018-11-03T16:47:38.432Z,17.33
2018-11-03T16:50:14.487Z,18.57
2018-11-03T16:52:49.330Z,20.37
2018-11-03T16:55:24.065Z,18.73
2018-11-03T16:57:59.555Z,18.40
2018-11-03T17:00:35.283Z,18.60
2018-11-03T17:03:10.113Z,19.03
2018-11-03T17:05:45.031Z,19.83
2018-11-03T17:08:20.019Z,19.27
2018-11-03T17:10:54.926Z,18.93
2018-11-03T17:13:29.746Z,18.70
2018-11-03T17:16:05.682Z,17.90
2018-11-03T17:18:40.565Z,19.23
2018-11-03T17:21:15.675Z,18.87
2018-11-03T17:23:50.529Z,19.30
2018-11-03T17:26:25.391Z,21.27
2018-11-03T17:29:00.105Z,20.03
2018-11-03T17:31:36.131Z,18.53
2018-11-03T17:34:11.016Z,18.70
2018-11-03T17:36:46.006Z,17.90
2018-11-03T17:39:20.827Z,19.07
2018-11-03T17:41:55.461Z,18.70
2018-11-03T17:44:30.296Z,24.57
2018-11-03T17:47:05.971Z,24.40
2018-11-03T17:49:40.986Z,23.87
2018-11-03T17:52:16.399Z,26.37
2018-11-03T17:54:51.555Z,25.73
2018-11-03T17:57:26.877Z,25.17
2018-11-03T18:00:01.677Z,25.07
2018-11-03T18:02:36.566Z,26.27
2018-11-03T18:05:11.277Z,23.43
2018-11-03T18:07:46.026Z,22.30
2018-11-03T18:10:21.229Z,23.50
2018-11-03T18:12:56.183Z,22.87
2018-11-03T18:15:31.162Z,24.63
2018-11-03T18:18:06.281Z,21.17
2018-11-03T18:20:41.543Z,19.13
2018-11-03T18:23:16.361Z,19.10
2018-11-03T18:25:51.075Z,18.03
2018-11-03T18:28:26.084Z,17.17
2018-11-03T18:31:01.083Z,17.03
2018-11-03T18:33:36.117Z,16.93
2018-11-03T18:36:11.223Z,18.70
2018-11-03T18:38:46.871Z,17.73
2018-11-03T18:41:21.839Z,19.10
2018-11-03T18:43:56.742Z,18.07
2018-11-03T18:46:31.706Z,16.90
2018-11-03T18:49:07.562Z,16.97
2018-11-03T18:51:42.870Z,16.67
2018-11-03T18:54:18.209Z,18.87
2018-11-03T18:56:53.065Z,19.30
2018-11-03T18:59:28.131Z,17.43
2018-11-03T19:02:02.855Z,17.23
2018-11-03T19:04:38.054Z,21.12
2018-11-03T19:07:13.029Z,21.43
2018-11-03T19:09:47.974Z,20.90
2018-11-03T19:12:23.479Z,21.02
2018-11-03T19:14:58.524Z,19.80
2018-11-03T19:17:33.720Z,20.57
2018-11-03T19:20:11.277Z,20.57
2018-11-03T19:22:46.814Z,20.27
2018-11-03T19:25:22.035Z,19.70
2018-11-03T19:27:56.903Z,20.85
2018-11-03T19:30:32.041Z,20.10
2018-11-03T19:33:06.943Z,20.40
2018-11-03T19:35:42.357Z,22.20
2018-11-03T19:38:18.416Z,20.75
2018-11-03T19:40:53.230Z,20.67
2018-11-03T19:43:28.234Z,19.92
2018-11-03T19:46:03.521Z,20.02
2018-11-03T19:48:38.432Z,19.03
2018-11-03T19:51:13.515Z,19.82
2018-11-03T19:53:48.742Z,19.77
2018-11-03T19:56:23.543Z,19.57
2018-11-03T19:58:58.437Z,18.67
2018-11-03T20:01:33.575Z,19.40
2018-11-03T20:04:08.578Z,19.32
2018-11-03T20:06:43.479Z,20.48
2018-11-03T20:09:18.746Z,20.43
2018-11-03T20:11:53.533Z,19.55
2018-11-03T20:14:28.762Z,20.27
2018-11-03T20:17:04.416Z,21.48
2018-11-03T20:19:39.737Z,20.88
2018-11-03T20:22:15.004Z,21.05
2018-11-03T20:24:50.085Z,20.60
2018-11-03T20:27:25.133Z,19.87
2018-11-03T20:30:00.657Z,19.12
2018-11-03T20:32:35.703Z,20.15
2018-11-03T20:35:10.723Z,18.90
2018-11-03T20:37:45.781Z,18.45
2018-11-03T20:40:21.288Z,18.98
2018-11-03T20:42:56.184Z,18.47
2018-11-03T20:45:31.164Z,19.65
2018-11-03T20:48:06.697Z,19.23
2018-11-03T20:50:41.833Z,19.15
2018-11-03T20:53:16.937Z,19.32
2018-11-03T20:55:52.253Z,18.30
2018-11-03T20:58:28.161Z,18.90
2018-11-03T21:01:03.566Z,19.20
2018-11-03T21:03:38.348Z,18.12
2018-11-03T21:06:13.943Z,18.57
2018-11-03T21:08:49.807Z,19.00
2018-11-03T21:11:25.858Z,19.30
2018-11-03T21:14:01.204Z,18.85
2018-11-03T21:16:36.291Z,19.55
2018-11-03T21:19:11.586Z,20.20
2018-11-03T21:21:47.853Z,19.67
2018-11-03T21:24:22.981Z,20.00
2018-11-03T21:26:58.147Z,19.70
2018-11-03T21:29:33.986Z,19.50
2018-11-03T21:32:10.184Z,19.32
2018-11-03T21:34:46.085Z,18.17
2018-11-03T21:37:20.773Z,17.77
2018-11-03T21:39:56.388Z,18.92
2018-11-03T21:42:31.509Z,19.62
2018-11-03T21:45:07.857Z,19.10
2018-11-03T21:47:42.719Z,19.73
2018-11-03T21:50:18.002Z,20.50
2018-11-03T21:52:52.856Z,19.23
2018-11-03T21:55:28.049Z,19.27
2018-11-03T21:58:03.050Z,20.48
2018-11-03T22:00:37.962Z,19.23
2018-11-03T22:03:13.045Z,19.17
2018-11-03T22:05:48.179Z,19.02
2018-11-03T22:08:22.989Z,18.55
2018-11-03T22:10:58.547Z,18.42
2018-11-03T22:13:33.367Z,18.57
2018-11-03T22:16:08.380Z,18.73
2018-11-03T22:18:43.346Z,18.90
2018-11-03T22:21:18.356Z,19.93
2018-11-03T22:23:53.406Z,19.85
2018-11-03T22:26:28.791Z,19.02
2018-11-03T22:29:03.842Z,18.77
2018-11-03T22:31:39.015Z,19.32
2018-11-03T22:34:14.105Z,19.10
2018-11-03T22:36:50.026Z,18.57
2018-11-03T22:39:25.205Z,19.25
2018-11-03T22:42:00.718Z,19.17
2018-11-03T22:44:36.073Z,18.52
2018-11-03T22:47:11.674Z,18.25
2018-11-03T22:49:47.862Z,18.02
2018-11-03T22:52:22.682Z,19.70
2018-11-03T22:54:57.667Z,19.57
2018-11-03T22:57:32.909Z,20.55
2018-11-03T23:00:11.234Z,19.90
2018-11-03T23:02:46.869Z,24.18
2018-11-03T23:05:21.534Z,21.68
2018-11-03T23:07:56.729Z,22.05
2018-11-03T23:10:31.797Z,20.80
2018-11-03T23:13:07.686Z,19.20
2018-11-03T23:15:42.796Z,18.43
2018-11-03T23:18:17.935Z,20.02
2018-11-03T23:20:52.651Z,18.80
2018-11-03T23:23:27.847Z,18.87
2018-11-03T23:26:02.826Z,22.98
2018-11-03T23:28:37.664Z,19.23
2018-11-03T23:31:13.431Z,21.60
2018-11-03T23:33:48.659Z,21.97
2018-11-03T23:36:23.816Z,22.87
2018-11-03T23:38:59.647Z,23.20
2018-11-03T23:41:34.593Z,22.98
2018-11-03T23:44:10.628Z,22.05
2018-11-03T23:46:45.754Z,26.48
2018-11-03T23:49:21.437Z,24.95
2018-11-03T23:51:56.278Z,24.77
2018-11-03T23:54:31.047Z,22.70
2018-11-03T23:57:06.435Z,23.05
2018-11-03T23:59:41.770Z,22.55
